sensor_id;sensor_type;location;lat;lon;timestamp;pressure;altitude;pressure_sealevel;temperature;humidity
3444;BME280;1736;52.068;6.968;2023-02-11T00:01:42;102791.50;;;6.20;100.00
3444;BME280;1736;52.068;6.968;2023-02-11T00:04:09;102788.91;;;6.18;100.00
3444;BME280;1736;52.068;6.968;2023-02-11T00:06:35;102790.66;;;6.18;100.00
3444;BME280;1736;52.068;6.968;2023-02-11T00:09:02;102788.91;;;6.18;100.00
3444;BME280;1736;52.068;6.968;2023-02-11T00:11:29;102790.94;;;6.10;100.00
3444;BME280;1736;52.068;6.968;2023-02-11T00:13:56;102774.06;;;6.16;100.00
3444;BME280;1736;52.068;6.968;2023-02-11T00:16:23;102774.09;;;6.14;100.00
3444;BME280;1736;52.068;6.968;2023-02-11T00:18:51;102780.91;;;6.21;100.00
3444;BME280;1736;52.068;6.968;2023-02-11T00:21:19;102777.66;;;6.13;100.00
3444;BME280;1736;52.068;6.968;2023-02-11T00:23:46;102780.88;;;6.23;100.00
3444;BME280;1736;52.068;6.968;2023-02-11T00:26:14;102779.16;;;6.20;100.00
3444;BME280;1736;52.068;6.968;2023-02-11T00:28:41;102768.81;;;6.14;100.00
3444;BME280;1736;52.068;6.968;2023-02-11T00:31:08;102767.91;;;6.15;100.00
3444;BME280;1736;52.068;6.968;2023-02-11T00:33:34;102775.63;;;6.21;100.00
3444;BME280;1736;52.068;6.968;2023-02-11T00:36:04;102777.41;;;6.21;100.00
3444;BME280;1736;52.068;6.968;2023-02-11T00:38:31;102789.69;;;6.20;100.00
3444;BME280;1736;52.068;6.968;2023-02-11T00:40:57;102789.78;;;6.19;100.00
3444;BME280;1736;52.068;6.968;2023-02-11T00:43:24;102791.53;;;6.18;100.00
3444;BME280;1736;52.068;6.968;2023-02-11T00:45:51;102801.88;;;6.24;100.00
3444;BME280;1736;52.068;6.968;2023-02-11T00:48:17;102790.41;;;6.27;100.00
3444;BME280;1736;52.068;6.968;2023-02-11T00:50:44;102800.94;;;6.27;100.00
3444;BME280;1736;52.068;6.968;2023-02-11T00:53:12;102800.06;;;6.26;100.00
3444;BME280;1736;52.068;6.968;2023-02-11T00:55:38;102789.59;;;6.23;100.00
3444;BME280;1736;52.068;6.968;2023-02-11T00:58:05;102781.66;;;6.25;100.00
3444;BME280;1736;52.068;6.968;2023-02-11T01:00:34;102787.91;;;6.22;100.00
3444;BME280;1736;52.068;6.968;2023-02-11T01:03:00;102784.34;;;6.23;100.00
3444;BME280;1736;52.068;6.968;2023-02-11T01:05:27;102790.31;;;6.28;100.00
3444;BME280;1736;52.068;6.968;2023-02-11T01:07:54;102790.41;;;6.27;100.00
3444;BME280;1736;52.068;6.968;2023-02-11T01:10:21;102802.78;;;6.23;100.00
3444;BME280;1736;52.068;6.968;2023-02-11T01:12:48;102793.97;;;6.24;100.00
3444;BME280;1736;52.068;6.968;2023-02-11T01:15:16;102787.03;;;6.22;100.00
3444;BME280;1736;52.068;6.968;2023-02-11T01:17:43;102791.94;;;6.32;100.00
3444;BME280;1736;52.068;6.968;2023-02-11T01:20:13;102782.13;;;6.37;100.00
3444;BME280;1736;52.068;6.968;2023-02-11T01:22:40;102763.84;;;6.31;100.00
3444;BME280;1736;52.068;6.968;2023-02-11T01:25:07;102752.38;;;6.32;100.00
3444;BME280;1736;52.068;6.968;2023-02-11T01:27:35;102753.31;;;6.31;100.00
3444;BME280;1736;52.068;6.968;2023-02-11T01:30:03;102749.69;;;6.34;99.89
3444;BME280;1736;52.068;6.968;2023-02-11T01:32:30;102758.44;;;6.36;99.99
3444;BME280;1736;52.068;6.968;2023-02-11T01:34:57;102748.13;;;6.28;100.00
3444;BME280;1736;52.068;6.968;2023-02-11T01:37:24;102767.09;;;6.39;99.81
3444;BME280;1736;52.068;6.968;2023-02-11T01:39:51;102764.63;;;6.35;99.56
3444;BME280;1736;52.068;6.968;2023-02-11T01:42:20;102771.81;;;6.30;100.00
3444;BME280;1736;52.068;6.968;2023-02-11T01:44:50;102771.06;;;6.26;100.00
3444;BME280;1736;52.068;6.968;2023-02-11T01:47:16;102767.28;;;6.35;100.00
3444;BME280;1736;52.068;6.968;2023-02-11T01:49:45;102767.59;;;6.24;100.00
3444;BME280;1736;52.068;6.968;2023-02-11T01:52:15;102754.41;;;6.24;100.00
3444;BME280;1736;52.068;6.968;2023-02-11T01:54:47;102757.19;;;6.21;100.00
3444;BME280;1736;52.068;6.968;2023-02-11T01:57:34;102751.91;;;6.21;100.00
3444;BME280;1736;52.068;6.968;2023-02-11T02:00:10;102750.06;;;6.23;100.00
3444;BME280;1736;52.068;6.968;2023-02-11T02:02:41;102755.03;;;6.32;100.00
3444;BME280;1736;52.068;6.968;2023-02-11T02:05:18;102741.97;;;6.29;99.91
3444;BME280;1736;52.068;6.968;2023-02-11T02:07:53;102747.38;;;6.25;100.00
3444;BME280;1736;52.068;6.968;2023-02-11T02:10:23;102736.97;;;6.20;100.00
3444;BME280;1736;52.068;6.968;2023-02-11T02:12:51;102732.47;;;6.24;99.93
3444;BME280;1736;52.068;6.968;2023-02-11T02:15:28;102726.38;;;6.22;100.00
3444;BME280;1736;52.068;6.968;2023-02-11T02:18:01;102725.69;;;6.17;99.97
3444;BME280;1736;52.068;6.968;2023-02-11T02:20:44;102730.06;;;6.16;100.00
3444;BME280;1736;52.068;6.968;2023-02-11T02:23:35;102728.22;;;6.20;100.00
3444;BME280;1736;52.068;6.968;2023-02-11T02:26:33;102729.97;;;6.19;100.00
3444;BME280;1736;52.068;6.968;2023-02-11T02:32:32;102724.88;;;6.15;100.00
3444;BME280;1736;52.068;6.968;2023-02-11T02:35:11;102719.25;;;6.25;100.00
3444;BME280;1736;52.068;6.968;2023-02-11T02:37:44;102727.34;;;6.19;99.81
3444;BME280;1736;52.068;6.968;2023-02-11T02:40:16;102725.38;;;6.26;99.92
3444;BME280;1736;52.068;6.968;2023-02-11T02:42:46;102718.38;;;6.25;99.69
3444;BME280;1736;52.068;6.968;2023-02-11T02:45:13;102709.81;;;6.18;99.91
3444;BME280;1736;52.068;6.968;2023-02-11T02:47:41;102709.44;;;6.29;99.92
3444;BME280;1736;52.068;6.968;2023-02-11T02:50:08;102725.31;;;6.27;99.56
3444;BME280;1736;52.068;6.968;2023-02-11T02:52:41;102726.44;;;6.20;99.93
3444;BME280;1736;52.068;6.968;2023-02-11T02:55:21;102733.53;;;6.18;100.00
3444;BME280;1736;52.068;6.968;2023-02-11T02:58:01;102732.72;;;6.16;100.00
3444;BME280;1736;52.068;6.968;2023-02-11T03:00:35;102731.59;;;6.23;100.00
3444;BME280;1736;52.068;6.968;2023-02-11T03:03:16;102722.91;;;6.21;100.00
3444;BME280;1736;52.068;6.968;2023-02-11T03:05:48;102719.34;;;6.22;100.00
3444;BME280;1736;52.068;6.968;2023-02-11T03:08:24;102707.94;;;6.22;100.00
3444;BME280;1736;52.068;6.968;2023-02-11T03:10:53;102702.50;;;6.26;100.00
3444;BME280;1736;52.068;6.968;2023-02-11T03:13:26;102695.66;;;6.21;100.00
3444;BME280;1736;52.068;6.968;2023-02-11T03:15:57;102696.72;;;6.15;100.00
3444;BME280;1736;52.068;6.968;2023-02-11T03:18:28;102698.44;;;6.16;100.00
3444;BME280;1736;52.068;6.968;2023-02-11T03:20:55;102683.44;;;6.18;100.00
3444;BME280;1736;52.068;6.968;2023-02-11T03:23:27;102684.31;;;6.19;100.00
3444;BME280;1736;52.068;6.968;2023-02-11T03:25:58;102690.66;;;6.13;100.00
3444;BME280;1736;52.068;6.968;2023-02-11T03:28:30;102680.00;;;6.16;100.00
3444;BME280;1736;52.068;6.968;2023-02-11T03:31:04;102689.31;;;6.26;100.00
3444;BME280;1736;52.068;6.968;2023-02-11T03:33:37;102696.50;;;6.23;100.00
3444;BME280;1736;52.068;6.968;2023-02-11T03:36:09;102694.78;;;6.20;100.00
3444;BME280;1736;52.068;6.968;2023-02-11T03:38:44;102694.38;;;6.32;100.00
3444;BME280;1736;52.068;6.968;2023-02-11T03:41:13;102700.06;;;6.20;100.00
3444;BME280;1736;52.068;6.968;2023-02-11T03:43:43;102699.41;;;6.14;100.00
3444;BME280;1736;52.068;6.968;2023-02-11T03:46:13;102701.81;;;6.21;100.00
3444;BME280;1736;52.068;6.968;2023-02-11T03:48:47;102705.47;;;6.17;100.00
3444;BME280;1736;52.068;6.968;2023-02-11T03:51:15;102717.06;;;6.12;100.00
3444;BME280;1736;52.068;6.968;2023-02-11T03:53:44;102716.72;;;6.22;100.00
3444;BME280;1736;52.068;6.968;2023-02-11T03:56:14;102717.16;;;6.09;100.00
3444;BME280;1736;52.068;6.968;2023-02-11T03:58:43;102710.75;;;6.17;100.00
3444;BME280;1736;52.068;6.968;2023-02-11T04:01:09;102712.63;;;6.12;100.00
3444;BME280;1736;52.068;6.968;2023-02-11T04:03:36;102712.53;;;6.15;100.00
3444;BME280;1736;52.068;6.968;2023-02-11T04:06:05;102719.53;;;6.16;100.00
3444;BME280;1736;52.068;6.968;2023-02-11T04:08:31;102723.09;;;6.15;100.00
3444;BME280;1736;52.068;6.968;2023-02-11T04:10:58;102723.66;;;6.25;100.00
3444;BME280;1736;52.068;6.968;2023-02-11T04:13:25;102722.91;;;6.21;100.00
3444;BME280;1736;52.068;6.968;2023-02-11T04:15:52;102723.00;;;6.18;100.00
3444;BME280;1736;52.068;6.968;2023-02-11T04:18:18;102720.38;;;6.18;100.00
3444;BME280;1736;52.068;6.968;2023-02-11T04:20:45;102724.72;;;6.19;100.00
3444;BME280;1736;52.068;6.968;2023-02-11T04:23:13;102720.41;;;6.17;100.00
3444;BME280;1736;52.068;6.968;2023-02-11T04:25:39;102730.22;;;6.13;100.00
3444;BME280;1736;52.068;6.968;2023-02-11T04:28:06;102725.13;;;6.07;100.00
3444;BME280;1736;52.068;6.968;2023-02-11T04:30:32;102724.09;;;6.11;100.00
3444;BME280;1736;52.068;6.968;2023-02-11T04:32:59;102735.47;;;6.13;100.00
3444;BME280;1736;52.068;6.968;2023-02-11T04:35:25;102725.81;;;6.12;100.00
3444;BME280;1736;52.068;6.968;2023-02-11T04:37:52;102727.53;;;6.15;100.00
3444;BME280;1736;52.068;6.968;2023-02-11T04:40:20;102721.28;;;6.17;100.00
3444;BME280;1736;52.068;6.968;2023-02-11T04:42:46;102726.44;;;6.20;100.00
3444;BME280;1736;52.068;6.968;2023-02-11T04:45:12;102721.47;;;6.11;100.00
3444;BME280;1736;52.068;6.968;2023-02-11T04:47:39;102713.81;;;6.04;100.00
3444;BME280;1736;52.068;6.968;2023-02-11T04:50:06;102716.31;;;6.08;100.00
3444;BME280;1736;52.068;6.968;2023-02-11T04:52:32;102730.38;;;6.07;100.00
3444;BME280;1736;52.068;6.968;2023-02-11T04:54:58;102729.56;;;6.07;100.00
3444;BME280;1736;52.068;6.968;2023-02-11T04:57:26;102727.81;;;6.06;100.00
3444;BME280;1736;52.068;6.968;2023-02-11T04:59:53;102732.88;;;6.12;100.00
3444;BME280;1736;52.068;6.968;2023-02-11T05:02:19;102737.19;;;6.14;100.00
3444;BME280;1736;52.068;6.968;2023-02-11T05:04:46;102729.34;;;6.13;100.00
3444;BME280;1736;52.068;6.968;2023-02-11T05:07:13;102734.03;;;6.03;100.00
3444;BME280;1736;52.068;6.968;2023-02-11T05:09:39;102729.25;;;6.16;100.00
3444;BME280;1736;52.068;6.968;2023-02-11T05:12:06;102747.16;;;6.05;100.00
3444;BME280;1736;52.068;6.968;2023-02-11T05:14:34;102735.72;;;6.06;100.00
3444;BME280;1736;52.068;6.968;2023-02-11T05:17:00;102743.69;;;6.04;100.00
3444;BME280;1736;52.068;6.968;2023-02-11T05:19:27;102738.47;;;6.03;100.00
3444;BME280;1736;52.068;6.968;2023-02-11T05:21:53;102732.22;;;6.05;100.00
3444;BME280;1736;52.068;6.968;2023-02-11T05:24:19;102737.59;;;6.02;100.00
3444;BME280;1736;52.068;6.968;2023-02-11T05:26:46;102733.25;;;6.01;100.00
3444;BME280;1736;52.068;6.968;2023-02-11T05:29:12;102729.34;;;6.13;100.00
3444;BME280;1736;52.068;6.968;2023-02-11T05:31:40;102742.00;;;6.02;100.00
3444;BME280;1736;52.068;6.968;2023-02-11T05:34:07;102727.88;;;6.04;100.00
3444;BME280;1736;52.068;6.968;2023-02-11T05:36:33;102731.00;;;6.15;100.00
3444;BME280;1736;52.068;6.968;2023-02-11T05:39:00;102726.56;;;6.17;100.00
3444;BME280;1736;52.068;6.968;2023-02-11T05:41:26;102728.47;;;6.12;100.00
3444;BME280;1736;52.068;6.968;2023-02-11T05:43:53;102725.28;;;6.03;100.00
3444;BME280;1736;52.068;6.968;2023-02-11T05:46:19;102736.84;;;5.99;100.00
3444;BME280;1736;52.068;6.968;2023-02-11T05:48:47;102733.44;;;5.95;100.00
3444;BME280;1736;52.068;6.968;2023-02-11T05:51:14;102719.06;;;6.05;100.00
3444;BME280;1736;52.068;6.968;2023-02-11T05:53:40;102716.59;;;5.99;100.00
3444;BME280;1736;52.068;6.968;2023-02-11T05:56:07;102710.50;;;5.99;100.00
3444;BME280;1736;52.068;6.968;2023-02-11T05:58:34;102704.25;;;6.01;100.00
3444;BME280;1736;52.068;6.968;2023-02-11T06:01:03;102710.63;;;5.94;100.00
3444;BME280;1736;52.068;6.968;2023-02-11T06:03:29;102720.09;;;6.00;100.00
3444;BME280;1736;52.068;6.968;2023-02-11T06:05:57;102714.88;;;5.98;100.00
3444;BME280;1736;52.068;6.968;2023-02-11T06:08:24;102718.53;;;5.94;100.00
3444;BME280;1736;52.068;6.968;2023-02-11T06:10:50;102721.13;;;5.96;100.00
3444;BME280;1736;52.068;6.968;2023-02-11T06:13:16;102720.25;;;5.95;100.00
3444;BME280;1736;52.068;6.968;2023-02-11T06:15:44;102708.09;;;5.91;100.00
3444;BME280;1736;52.068;6.968;2023-02-11T06:18:10;102720.38;;;5.92;100.00
3444;BME280;1736;52.068;6.968;2023-02-11T06:20:37;102705.56;;;5.88;100.00
3444;BME280;1736;52.068;6.968;2023-02-11T06:23:06;102701.81;;;5.95;100.00
3444;BME280;1736;52.068;6.968;2023-02-11T06:25:32;102713.34;;;5.91;100.00
3444;BME280;1736;52.068;6.968;2023-02-11T06:27:59;102711.53;;;5.93;100.00
3444;BME280;1736;52.068;6.968;2023-02-11T06:30:25;102702.75;;;5.93;100.00
3444;BME280;1736;52.068;6.968;2023-02-11T06:32:52;102708.09;;;5.91;100.00
3444;BME280;1736;52.068;6.968;2023-02-11T06:35:18;102709.81;;;5.92;100.00
3444;BME280;1736;52.068;6.968;2023-02-11T06:37:45;102702.94;;;5.88;100.00
3444;BME280;1736;52.068;6.968;2023-02-11T06:40:16;102715.91;;;5.94;100.00
3444;BME280;1736;52.068;6.968;2023-02-11T06:42:42;102719.28;;;5.98;100.00
3444;BME280;1736;52.068;6.968;2023-02-11T06:45:09;102725.53;;;5.95;100.00
3444;BME280;1736;52.068;6.968;2023-02-11T06:47:37;102730.59;;;6.01;100.00
3444;BME280;1736;52.068;6.968;2023-02-11T06:50:06;102738.56;;;6.00;100.00
3444;BME280;1736;52.068;6.968;2023-02-11T06:52:33;102737.50;;;6.05;100.00
3444;BME280;1736;52.068;6.968;2023-02-11T06:54:59;102732.31;;;6.02;100.00
3444;BME280;1736;52.068;6.968;2023-02-11T06:57:29;102736.72;;;6.02;100.00
3444;BME280;1736;52.068;6.968;2023-02-11T06:59:55;102738.50;;;6.01;100.00
3444;BME280;1736;52.068;6.968;2023-02-11T07:02:22;102737.69;;;5.99;100.00
3444;BME280;1736;52.068;6.968;2023-02-11T07:04:48;102740.44;;;5.96;100.00
3444;BME280;1736;52.068;6.968;2023-02-11T07:07:15;102734.03;;;6.03;100.00
3444;BME280;1736;52.068;6.968;2023-02-11T07:09:42;102744.53;;;6.05;100.00
3444;BME280;1736;52.068;6.968;2023-02-11T07:12:10;102747.25;;;6.02;100.00
3444;BME280;1736;52.068;6.968;2023-02-11T07:14:38;102755.13;;;6.03;100.00
3444;BME280;1736;52.068;6.968;2023-02-11T07:17:05;102753.31;;;6.05;100.00
3444;BME280;1736;52.068;6.968;2023-02-11T07:19:31;102751.47;;;6.07;100.00
3444;BME280;1736;52.068;6.968;2023-02-11T07:21:58;102739.44;;;6.00;100.00
3444;BME280;1736;52.068;6.968;2023-02-11T07:24:24;102741.25;;;5.98;100.00
3444;BME280;1736;52.068;6.968;2023-02-11T07:26:52;102745.31;;;6.08;100.00
3444;BME280;1736;52.068;6.968;2023-02-11T07:29:18;102738.44;;;6.04;100.00
3444;BME280;1736;52.068;6.968;2023-02-11T07:31:46;102737.41;;;6.08;100.00
3444;BME280;1736;52.068;6.968;2023-02-11T07:34:12;102731.31;;;6.06;100.00
3444;BME280;1736;52.068;6.968;2023-02-11T07:36:39;102733.06;;;6.06;100.00
3444;BME280;1736;52.068;6.968;2023-02-11T07:39:07;102749.63;;;6.11;100.00
3444;BME280;1736;52.068;6.968;2023-02-11T07:41:34;102749.53;;;6.12;100.00
3444;BME280;1736;52.068;6.968;2023-02-11T07:44:01;102762.72;;;6.12;100.00
3444;BME280;1736;52.068;6.968;2023-02-11T07:46:27;102758.59;;;6.05;100.00
3444;BME280;1736;52.068;6.968;2023-02-11T07:48:55;102752.19;;;6.12;100.00
3444;BME280;1736;52.068;6.968;2023-02-11T07:51:23;102758.16;;;6.19;100.00
3444;BME280;1736;52.068;6.968;2023-02-11T07:53:50;102752.69;;;6.23;100.00
3444;BME280;1736;52.068;6.968;2023-02-11T07:56:18;102765.78;;;6.26;100.00
3444;BME280;1736;52.068;6.968;2023-02-11T07:58:45;102770.34;;;6.21;100.00
3444;BME280;1736;52.068;6.968;2023-02-11T08:01:15;102774.00;;;6.17;100.00
3444;BME280;1736;52.068;6.968;2023-02-11T08:03:42;102772.16;;;6.19;100.00
3444;BME280;1736;52.068;6.968;2023-02-11T08:06:12;102763.16;;;6.26;100.00
3444;BME280;1736;52.068;6.968;2023-02-11T08:08:39;102763.94;;;6.28;100.00
3444;BME280;1736;52.068;6.968;2023-02-11T08:11:06;102767.59;;;6.24;100.00
3444;BME280;1736;52.068;6.968;2023-02-11T08:13:34;102763.16;;;6.26;100.00
3444;BME280;1736;52.068;6.968;2023-02-11T08:16:00;102760.28;;;6.32;100.00
3444;BME280;1736;52.068;6.968;2023-02-11T08:18:27;102773.25;;;6.40;100.00
3444;BME280;1736;52.068;6.968;2023-02-11T08:20:53;102771.03;;;6.52;100.00
3444;BME280;1736;52.068;6.968;2023-02-11T08:23:22;102769.66;;;6.42;100.00
3444;BME280;1736;52.068;6.968;2023-02-11T08:25:48;102775.00;;;6.39;100.00
3444;BME280;1736;52.068;6.968;2023-02-11T08:28:15;102774.00;;;6.43;100.00
3444;BME280;1736;52.068;6.968;2023-02-11T08:30:41;102774.50;;;6.54;100.00
3444;BME280;1736;52.068;6.968;2023-02-11T08:33:08;102776.06;;;6.60;100.00
3444;BME280;1736;52.068;6.968;2023-02-11T08:35:34;102778.72;;;6.60;100.00
3444;BME280;1736;52.068;6.968;2023-02-11T08:38:01;102793.56;;;6.62;100.00
3444;BME280;1736;52.068;6.968;2023-02-11T08:40:29;102792.56;;;6.66;100.00
3444;BME280;1736;52.068;6.968;2023-02-11T08:42:55;102790.50;;;6.74;100.00
3444;BME280;1736;52.068;6.968;2023-02-11T08:45:22;102787.28;;;6.66;100.00
3444;BME280;1736;52.068;6.968;2023-02-11T08:47:48;102786.25;;;6.70;100.00
3444;BME280;1736;52.068;6.968;2023-02-11T08:50:15;102784.53;;;6.69;100.00
3444;BME280;1736;52.068;6.968;2023-02-11T08:52:41;102790.56;;;6.73;100.00
3444;BME280;1736;52.068;6.968;2023-02-11T08:55:08;102791.06;;;6.84;100.00
3444;BME280;1736;52.068;6.968;2023-02-11T08:57:36;102791.22;;;6.79;100.00
3444;BME280;1736;52.068;6.968;2023-02-11T09:00:04;102794.44;;;6.87;100.00
3444;BME280;1736;52.068;6.968;2023-02-11T09:02:30;102791.09;;;6.82;100.00
3444;BME280;1736;52.068;6.968;2023-02-11T09:04:57;102799.72;;;6.87;100.00
3444;BME280;1736;52.068;6.968;2023-02-11T09:07:24;102800.31;;;6.95;100.00
3444;BME280;1736;52.068;6.968;2023-02-11T09:09:50;102802.84;;;6.98;100.00
3444;BME280;1736;52.068;6.968;2023-02-11T09:12:17;102804.34;;;7.05;100.00
3444;BME280;1736;52.068;6.968;2023-02-11T09:14:45;102803.84;;;7.19;100.00
3444;BME280;1736;52.068;6.968;2023-02-11T09:17:11;102811.81;;;7.17;100.00
3444;BME280;1736;52.068;6.968;2023-02-11T09:19:38;102822.03;;;7.03;100.00
3444;BME280;1736;52.068;6.968;2023-02-11T09:22:04;102821.69;;;7.12;100.00
3444;BME280;1736;52.068;6.968;2023-02-11T09:24:31;102826.28;;;7.07;100.00
3444;BME280;1736;52.068;6.968;2023-02-11T09:26:57;102818.03;;;7.16;100.00
3444;BME280;1736;52.068;6.968;2023-02-11T09:29:24;102823.31;;;7.16;100.00
3444;BME280;1736;52.068;6.968;2023-02-11T09:31:52;102824.03;;;7.20;100.00
3444;BME280;1736;52.068;6.968;2023-02-11T09:34:18;102823.16;;;7.21;100.00
3444;BME280;1736;52.068;6.968;2023-02-11T09:36:45;102831.91;;;7.21;100.00
3444;BME280;1736;52.068;6.968;2023-02-11T09:39:14;102834.44;;;7.24;100.00
3444;BME280;1736;52.068;6.968;2023-02-11T09:42:04;102838.22;;;7.17;100.00
3444;BME280;1736;52.068;6.968;2023-02-11T09:44:35;102841.78;;;7.16;100.00
3444;BME280;1736;52.068;6.968;2023-02-11T09:47:05;102843.25;;;7.25;100.00
3444;BME280;1736;52.068;6.968;2023-02-11T09:49:43;102844.69;;;7.33;100.00
3444;BME280;1736;52.068;6.968;2023-02-11T09:52:17;102853.03;;;7.46;100.00
3444;BME280;1736;52.068;6.968;2023-02-11T09:54:54;102854.22;;;7.37;100.00
3444;BME280;1736;52.068;6.968;2023-02-11T09:57:22;102857.63;;;7.41;100.00
3444;BME280;1736;52.068;6.968;2023-02-11T09:59:51;102855.63;;;7.47;100.00
3444;BME280;1736;52.068;6.968;2023-02-11T10:02:23;102859.28;;;7.43;100.00
3444;BME280;1736;52.068;6.968;2023-02-11T10:05:14;102868.00;;;7.45;100.00
3444;BME280;1736;52.068;6.968;2023-02-11T10:07:49;102870.44;;;7.51;100.00
3444;BME280;1736;52.068;6.968;2023-02-11T10:10:31;102868.69;;;7.50;100.00
3444;BME280;1736;52.068;6.968;2023-02-11T10:13:14;102880.47;;;7.42;100.00
3444;BME280;1736;52.068;6.968;2023-02-11T10:15:51;102896.28;;;7.43;100.00
3444;BME280;1736;52.068;6.968;2023-02-11T10:18:48;102897.66;;;7.53;100.00
3444;BME280;1736;52.068;6.968;2023-02-11T10:21:24;102897.91;;;7.47;100.00
3444;BME280;1736;52.068;6.968;2023-02-11T10:23:59;102912.13;;;7.43;100.00
3444;BME280;1736;52.068;6.968;2023-02-11T10:26:30;102902.31;;;7.47;100.00
3444;BME280;1736;52.068;6.968;2023-02-11T10:29:00;102912.78;;;7.50;100.00
3444;BME280;1736;52.068;6.968;2023-02-11T10:31:33;102901.31;;;7.49;100.00
3444;BME280;1736;52.068;6.968;2023-02-11T10:34:05;102911.56;;;7.58;100.00
3444;BME280;1736;52.068;6.968;2023-02-11T10:36:34;102903.75;;;7.55;100.00
3444;BME280;1736;52.068;6.968;2023-02-11T10:39:10;102904.56;;;7.57;100.00
3444;BME280;1736;52.068;6.968;2023-02-11T10:41:39;102912.03;;;7.69;100.00
3444;BME280;1736;52.068;6.968;2023-02-11T10:44:16;102914.34;;;7.78;100.00
3444;BME280;1736;52.068;6.968;2023-02-11T10:46:44;102915.16;;;7.80;100.00
3444;BME280;1736;52.068;6.968;2023-02-11T10:49:32;102910.91;;;7.76;100.00
3444;BME280;1736;52.068;6.968;2023-02-11T10:52:12;102918.59;;;7.82;100.00
3444;BME280;1736;52.068;6.968;2023-02-11T10:54:39;102920.25;;;7.85;100.00
3444;BME280;1736;52.068;6.968;2023-02-11T10:57:06;102923.47;;;7.93;100.00
3444;BME280;1736;52.068;6.968;2023-02-11T10:59:38;102926.31;;;7.88;100.00
3444;BME280;1736;52.068;6.968;2023-02-11T11:02:20;102928.75;;;7.93;100.00
3444;BME280;1736;52.068;6.968;2023-02-11T11:04:55;102921.28;;;8.04;100.00
3444;BME280;1736;52.068;6.968;2023-02-11T11:07:24;102916.13;;;8.01;100.00
3444;BME280;1736;52.068;6.968;2023-02-11T11:09:53;102905.84;;;8.16;100.00
3444;BME280;1736;52.068;6.968;2023-02-11T11:12:32;102911.22;;;8.13;100.00
3444;BME280;1736;52.068;6.968;2023-02-11T11:15:01;102912.91;;;8.16;100.00
3444;BME280;1736;52.068;6.968;2023-02-11T11:17:29;102907.22;;;8.26;100.00
3444;BME280;1736;52.068;6.968;2023-02-11T11:20:22;102903.03;;;8.19;100.00
3444;BME280;1736;52.068;6.968;2023-02-11T11:22:53;102906.19;;;8.30;100.00
3444;BME280;1736;52.068;6.968;2023-02-11T11:25:34;102900.47;;;8.41;100.00
3444;BME280;1736;52.068;6.968;2023-02-11T11:28:02;102905.53;;;8.47;100.00
3444;BME280;1736;52.068;6.968;2023-02-11T11:30:32;102898.31;;;8.50;100.00
3444;BME280;1736;52.068;6.968;2023-02-11T11:33:03;102896.00;;;8.64;100.00
3444;BME280;1736;52.068;6.968;2023-02-11T11:35:31;102901.13;;;8.67;100.00
3444;BME280;1736;52.068;6.968;2023-02-11T11:38:00;102892.53;;;8.62;100.00
3444;BME280;1736;52.068;6.968;2023-02-11T11:40:29;102892.78;;;8.56;100.00
3444;BME280;1736;52.068;6.968;2023-02-11T11:43:06;102893.69;;;8.55;100.00
3444;BME280;1736;52.068;6.968;2023-02-11T11:45:51;102904.09;;;8.60;100.00
3444;BME280;1736;52.068;6.968;2023-02-11T11:48:21;102912.38;;;8.72;100.00
3444;BME280;1736;52.068;6.968;2023-02-11T11:50:53;102905.75;;;8.62;100.00
3444;BME280;1736;52.068;6.968;2023-02-11T11:53:24;102909.06;;;8.67;100.00
3444;BME280;1736;52.068;6.968;2023-02-11T11:56:00;102907.63;;;8.80;100.00
3444;BME280;1736;52.068;6.968;2023-02-11T11:58:29;102908.63;;;8.78;100.00
3444;BME280;1736;52.068;6.968;2023-02-11T12:01:04;102919.16;;;8.79;99.84
3444;BME280;1736;52.068;6.968;2023-02-11T12:06:51;102918.03;;;9.06;98.50
3444;BME280;1736;52.068;6.968;2023-02-11T12:09:26;102915.56;;;9.02;98.42
3444;BME280;1736;52.068;6.968;2023-02-11T12:12:08;102906.34;;;8.90;98.95
3444;BME280;1736;52.068;6.968;2023-02-11T12:14:44;102897.59;;;8.88;99.08
3444;BME280;1736;52.068;6.968;2023-02-11T12:17:27;102902.22;;;8.83;98.74
3444;BME280;1736;52.068;6.968;2023-02-11T12:20:11;102898.72;;;9.03;98.56
3444;BME280;1736;52.068;6.968;2023-02-11T12:22:50;102892.38;;;9.07;97.96
3444;BME280;1736;52.068;6.968;2023-02-11T12:25:25;102887.56;;;9.16;97.42
3444;BME280;1736;52.068;6.968;2023-02-11T12:28:02;102886.38;;;9.23;97.18
3444;BME280;1736;52.068;6.968;2023-02-11T12:30:51;102881.34;;;9.17;96.70
3444;BME280;1736;52.068;6.968;2023-02-11T12:33:29;102892.84;;;9.16;97.16
3444;BME280;1736;52.068;6.968;2023-02-11T12:36:05;102890.88;;;9.21;96.93
3444;BME280;1736;52.068;6.968;2023-02-11T12:38:49;102893.00;;;9.13;97.46
3444;BME280;1736;52.068;6.968;2023-02-11T12:41:31;102898.91;;;9.20;97.46
3444;BME280;1736;52.068;6.968;2023-02-11T12:44:27;102888.75;;;9.29;96.87
3444;BME280;1736;52.068;6.968;2023-02-11T12:47:07;102889.13;;;9.20;97.05
3444;BME280;1736;52.068;6.968;2023-02-11T12:49:55;102893.91;;;9.12;97.25
3444;BME280;1736;52.068;6.968;2023-02-11T12:52:35;102896.31;;;9.18;96.95
3444;BME280;1736;52.068;6.968;2023-02-11T12:55:10;102884.06;;;9.16;97.42
3444;BME280;1736;52.068;6.968;2023-02-11T12:57:43;102887.56;;;9.16;97.50
3444;BME280;1736;52.068;6.968;2023-02-11T13:00:13;102888.50;;;9.15;97.87
3444;BME280;1736;52.068;6.968;2023-02-11T13:02:45;102889.94;;;9.22;97.64
3444;BME280;1736;52.068;6.968;2023-02-11T13:05:22;102896.56;;;9.32;97.11
3444;BME280;1736;52.068;6.968;2023-02-11T13:07:51;102895.50;;;9.36;96.50
3444;BME280;1736;52.068;6.968;2023-02-11T13:10:25;102896.69;;;9.29;96.40
3444;BME280;1736;52.068;6.968;2023-02-11T13:12:54;102886.91;;;9.31;96.78
3444;BME280;1736;52.068;6.968;2023-02-11T13:15:40;102890.13;;;9.38;96.22
3444;BME280;1736;52.068;6.968;2023-02-11T13:18:16;102893.66;;;9.38;96.13
3444;BME280;1736;52.068;6.968;2023-02-11T13:20:52;102900.28;;;9.28;96.21
3444;BME280;1736;52.068;6.968;2023-02-11T13:23:22;102898.47;;;9.49;96.33
3444;BME280;1736;52.068;6.968;2023-02-11T13:25:57;102898.72;;;9.63;95.16
3444;BME280;1736;52.068;6.968;2023-02-11T13:28:42;102894.53;;;9.57;94.95
3444;BME280;1736;52.068;6.968;2023-02-11T13:31:10;102890.28;;;9.73;94.93
3444;BME280;1736;52.068;6.968;2023-02-11T13:33:41;102876.44;;;9.85;94.29
3444;BME280;1736;52.068;6.968;2023-02-11T13:36:19;102870.81;;;9.74;94.38